createdAt,value
2022-12-08T00:01:49.978Z,98335.20
2022-12-08T00:04:25.953Z,98333.40
2022-12-08T00:07:19.529Z,98339.40
2022-12-08T00:09:55.415Z,98338.60
2022-12-08T00:12:33.316Z,98338.40
2022-12-08T00:15:14.977Z,98338.00
2022-12-08T00:17:58.666Z,98342.60
2022-12-08T00:20:39.723Z,98341.40
2022-12-08T00:23:23.265Z,98336.20
2022-12-08T00:26:09.952Z,98340.80
2022-12-08T00:28:55.031Z,98339.60
2022-12-08T00:31:40.997Z,98342.60
2022-12-08T00:34:23.192Z,98344.20
2022-12-08T00:37:02.155Z,98348.20
2022-12-08T00:39:44.384Z,98348.80
2022-12-08T00:42:23.270Z,98348.60
2022-12-08T00:45:05.268Z,98351.00
2022-12-08T00:47:44.462Z,98352.40
2022-12-08T00:50:23.195Z,98353.00
2022-12-08T00:53:04.539Z,98354.00
2022-12-08T00:55:41.604Z,98354.00
2022-12-08T00:58:23.593Z,98353.60
2022-12-08T01:01:04.036Z,98355.80
2022-12-08T01:03:41.906Z,98353.60
2022-12-08T01:06:21.744Z,98360.00
2022-12-08T01:09:01.767Z,98361.20
2022-12-08T01:11:45.972Z,98364.80
2022-12-08T01:14:23.466Z,98363.60
2022-12-08T01:17:04.432Z,98366.40
2022-12-08T01:19:43.072Z,98365.80
2022-12-08T01:22:22.644Z,98376.20
2022-12-08T01:25:00.703Z,98374.60
2022-12-08T01:27:38.998Z,98372.40
2022-12-08T01:30:19.577Z,98367.20
2022-12-08T01:32:59.361Z,98370.20
2022-12-08T01:35:40.698Z,98366.00
2022-12-08T01:38:19.614Z,98363.00
2022-12-08T01:41:00.222Z,98363.40
2022-12-08T01:44:04.488Z,98367.00
2022-12-08T01:46:44.530Z,98362.60
2022-12-08T01:49:30.398Z,98362.00
2022-12-08T01:52:15.836Z,98361.80
2022-12-08T01:55:01.346Z,98362.20
2022-12-08T01:57:46.796Z,98355.20
2022-12-08T02:00:26.459Z,98359.80
2022-12-08T02:03:11.202Z,98360.00
2022-12-08T02:05:53.581Z,98364.20
2022-12-08T02:08:33.046Z,98365.80
2022-12-08T02:11:15.373Z,98366.00
2022-12-08T02:13:58.354Z,98369.60
2022-12-08T02:16:50.802Z,98376.40
2022-12-08T02:20:32.323Z,98374.40
2022-12-08T02:23:23.859Z,98379.80
2022-12-08T02:27:12.851Z,98372.60
2022-12-08T02:30:28.250Z,98372.80
2022-12-08T02:34:03.480Z,98374.00
2022-12-08T02:37:00.245Z,98372.60
2022-12-08T02:39:52.536Z,98370.40
2022-12-08T02:42:40.369Z,98369.80
2022-12-08T02:45:31.537Z,98374.60
2022-12-08T02:48:10.600Z,98375.40
2022-12-08T02:50:47.692Z,98370.20
2022-12-08T02:53:24.000Z,98372.60
2022-12-08T02:56:17.700Z,98378.20
2022-12-08T02:59:17.021Z,98374.60
2022-12-08T03:02:22.155Z,98376.60
2022-12-08T03:05:14.749Z,98375.60
2022-12-08T03:08:04.301Z,98376.00
2022-12-08T03:10:48.255Z,98378.60
2022-12-08T03:13:30.734Z,98376.80
2022-12-08T03:16:10.667Z,98379.20
2022-12-08T03:18:56.288Z,98373.00
2022-12-08T03:21:35.907Z,98370.80
2022-12-08T03:24:16.575Z,98372.80
2022-12-08T03:27:01.178Z,98370.60
2022-12-08T03:29:37.810Z,98370.20
2022-12-08T03:32:24.940Z,98371.20
2022-12-08T03:35:05.231Z,98366.80
2022-12-08T03:37:43.915Z,98367.20
2022-12-08T03:40:23.051Z,98366.80
2022-12-08T03:42:58.949Z,98370.80
2022-12-08T03:45:35.044Z,98370.20
2022-12-08T03:48:12.027Z,98365.40
2022-12-08T03:50:47.982Z,98366.40
2022-12-08T03:53:24.354Z,98362.00
2022-12-08T03:56:00.283Z,98363.60
2022-12-08T03:58:37.681Z,98363.40
2022-12-08T04:01:14.352Z,98364.20
2022-12-08T04:03:51.237Z,98366.20
2022-12-08T04:06:28.488Z,98363.60
2022-12-08T04:09:05.308Z,98362.60
2022-12-08T04:11:41.567Z,98357.60
2022-12-08T04:14:17.725Z,98359.60
2022-12-08T04:16:54.691Z,98363.40
2022-12-08T04:19:32.311Z,98358.00
2022-12-08T04:22:08.831Z,98361.20
2022-12-08T04:24:46.152Z,98359.40
2022-12-08T04:27:22.397Z,98358.40
2022-12-08T04:29:59.439Z,98356.40
2022-12-08T04:32:36.823Z,98359.20
2022-12-08T04:35:15.157Z,98360.40
2022-12-08T04:37:53.601Z,98355.40
2022-12-08T04:40:31.817Z,98358.40
2022-12-08T04:43:09.654Z,98357.60
2022-12-08T04:45:49.019Z,98353.20
2022-12-08T04:48:25.511Z,98353.20
2022-12-08T04:51:01.300Z,98351.60
2022-12-08T04:53:40.871Z,98354.40
2022-12-08T04:56:21.801Z,98357.80
2022-12-08T04:58:59.824Z,98355.40
2022-12-08T05:01:39.490Z,98353.20
2022-12-08T05:04:16.710Z,98350.60
2022-12-08T05:06:55.677Z,98347.60
2022-12-08T05:09:33.880Z,98350.20
2022-12-08T05:12:13.503Z,98350.60
2022-12-08T05:14:52.627Z,98353.80
2022-12-08T05:17:32.010Z,98352.60
2022-12-08T05:20:17.109Z,98354.80
2022-12-08T05:22:55.953Z,98353.60
2022-12-08T05:25:35.973Z,98358.00
2022-12-08T05:28:40.301Z,98355.00
2022-12-08T05:31:14.038Z,98352.80
2022-12-08T05:33:53.202Z,98354.80
2022-12-08T05:36:31.995Z,98358.00
2022-12-08T05:39:13.456Z,98360.60
2022-12-08T05:41:53.021Z,98359.20
2022-12-08T05:44:33.337Z,98357.00
2022-12-08T05:47:12.940Z,98360.40
2022-12-08T05:49:55.116Z,98358.80
2022-12-08T05:52:35.909Z,98361.40
2022-12-08T05:55:13.575Z,98366.00
2022-12-08T05:57:49.325Z,98367.00
2022-12-08T06:00:26.970Z,98367.80
2022-12-08T06:03:03.011Z,98372.80
2022-12-08T06:05:41.136Z,98373.00
2022-12-08T06:08:17.424Z,98372.00
2022-12-08T06:10:53.608Z,98372.40
2022-12-08T06:13:29.468Z,98372.60
2022-12-08T06:16:11.205Z,98375.40
2022-12-08T06:18:45.638Z,98393.40
2022-12-08T06:21:22.412Z,98394.80
2022-12-08T06:24:00.134Z,98392.40
2022-12-08T06:26:36.234Z,98397.00
2022-12-08T06:29:12.132Z,98397.00
2022-12-08T06:32:00.913Z,98396.20
2022-12-08T06:34:59.148Z,98397.80
2022-12-08T06:37:36.622Z,98399.00
2022-12-08T06:40:15.809Z,98402.40
2022-12-08T06:42:51.760Z,98398.20
2022-12-08T06:45:27.581Z,98404.20
2022-12-08T06:48:05.604Z,98411.40
2022-12-08T06:50:41.341Z,98412.40
2022-12-08T06:53:19.050Z,98413.60
2022-12-08T06:55:59.619Z,98415.20
2022-12-08T06:58:36.924Z,98415.40
2022-12-08T07:01:17.358Z,98411.80
2022-12-08T07:04:01.742Z,98416.00
2022-12-08T07:06:38.453Z,98414.00
2022-12-08T07:09:14.316Z,98414.80
2022-12-08T07:11:50.124Z,98416.00
2022-12-08T07:14:26.233Z,98423.60
2022-12-08T07:17:06.430Z,98421.20
2022-12-08T07:19:44.793Z,98418.20
2022-12-08T07:22:20.839Z,98415.40
2022-12-08T07:24:57.062Z,98417.80
2022-12-08T07:27:33.077Z,98424.80
2022-12-08T07:30:12.353Z,98426.60
2022-12-08T07:32:48.166Z,98429.60
2022-12-08T07:35:27.356Z,98427.60
2022-12-08T07:38:04.203Z,98425.00
2022-12-08T07:40:43.406Z,98422.20
2022-12-08T07:43:20.442Z,98426.60
2022-12-08T07:45:56.613Z,98422.80
2022-12-08T07:48:33.808Z,98423.40
2022-12-08T07:51:12.879Z,98425.40
2022-12-08T07:53:54.649Z,98423.20
2022-12-08T07:56:31.012Z,98429.60
2022-12-08T07:59:06.956Z,98425.20
2022-12-08T08:01:45.409Z,98427.40
2022-12-08T08:04:21.788Z,98426.80
2022-12-08T08:06:57.911Z,98426.20
2022-12-08T08:09:33.875Z,98425.80
2022-12-08T08:12:30.855Z,98430.80
2022-12-08T08:15:10.257Z,98429.60
2022-12-08T08:17:46.196Z,98429.60
2022-12-08T08:20:24.022Z,98423.00
2022-12-08T08:23:00.066Z,98427.80
2022-12-08T08:25:35.884Z,98424.20
2022-12-08T08:28:11.742Z,98426.80
2022-12-08T08:30:48.661Z,98424.40
2022-12-08T08:33:24.720Z,98424.40
2022-12-08T08:36:00.658Z,98420.80
2022-12-08T08:38:39.476Z,98424.40
2022-12-08T08:41:15.973Z,98424.60
2022-12-08T08:43:51.851Z,98429.00
2022-12-08T08:46:28.130Z,98432.20
2022-12-08T08:49:04.734Z,98429.20
2022-12-08T08:51:43.980Z,98429.00
2022-12-08T08:54:20.136Z,98429.40
2022-12-08T08:56:56.291Z,98429.40
2022-12-08T08:59:33.052Z,98429.00
2022-12-08T09:02:11.415Z,98423.60
2022-12-08T09:04:48.157Z,98424.80
2022-12-08T09:07:24.516Z,98426.20
2022-12-08T09:10:02.027Z,98421.80
2022-12-08T09:12:38.476Z,98421.60
2022-12-08T09:15:15.722Z,98420.20
2022-12-08T09:17:51.619Z,98415.40
2022-12-08T09:20:27.479Z,98416.80
2022-12-08T09:23:03.358Z,98418.00
2022-12-08T09:25:39.191Z,98412.40
2022-12-08T09:28:15.897Z,98407.00
2022-12-08T09:30:53.693Z,98407.40
2022-12-08T09:33:29.715Z,98405.80
2022-12-08T09:36:11.200Z,98403.00
2022-12-08T09:38:47.972Z,98400.80
2022-12-08T09:41:43.345Z,98397.60
2022-12-08T09:44:57.465Z,98392.20
2022-12-08T09:47:40.958Z,98387.40
2022-12-08T09:50:34.688Z,98384.40
2022-12-08T09:53:17.059Z,98383.20
2022-12-08T09:56:00.127Z,98384.80
2022-12-08T09:58:50.449Z,98387.40
2022-12-08T10:01:32.062Z,98382.00
2022-12-08T10:04:20.121Z,98376.80
2022-12-08T10:07:11.218Z,98375.80
2022-12-08T10:09:57.397Z,98370.40
2022-12-08T10:12:44.371Z,98364.20
2022-12-08T10:15:45.378Z,98363.20
2022-12-08T10:18:29.176Z,98367.80
2022-12-08T10:21:20.609Z,98371.00
2022-12-08T10:24:04.817Z,98365.40
2022-12-08T10:26:40.981Z,98361.00
2022-12-08T10:29:19.020Z,98358.20
2022-12-08T10:31:55.150Z,98359.80
2022-12-08T10:34:32.137Z,98361.60
2022-12-08T10:37:16.488Z,98362.40
2022-12-08T10:40:03.002Z,98362.00
2022-12-08T10:42:44.784Z,98358.40
2022-12-08T10:45:38.950Z,98358.80
2022-12-08T10:48:23.735Z,98360.40
2022-12-08T10:51:05.302Z,98360.00
2022-12-08T10:53:49.572Z,98356.40
2022-12-08T10:56:30.649Z,98359.20
2022-12-08T10:59:20.362Z,98353.80
2022-12-08T11:01:58.322Z,98348.80
2022-12-08T11:04:39.656Z,98345.00
2022-12-08T11:07:23.976Z,98338.40
2022-12-08T11:10:02.144Z,98337.60
2022-12-08T11:12:38.396Z,98338.60
2022-12-08T11:15:20.385Z,98339.60
2022-12-08T11:18:12.062Z,98339.20
2022-12-08T11:20:47.941Z,98338.00
2022-12-08T11:23:30.843Z,98336.80
2022-12-08T11:26:25.096Z,98335.20
2022-12-08T11:29:01.400Z,98336.80
2022-12-08T11:31:46.257Z,98340.20
2022-12-08T11:34:36.407Z,98338.60
2022-12-08T11:37:27.496Z,98335.00
2022-12-08T11:40:17.616Z,98338.60
2022-12-08T11:43:16.677Z,98335.40
2022-12-08T11:45:58.810Z,98332.00
2022-12-08T11:48:42.216Z,98333.60
2022-12-08T11:51:25.145Z,98333.80
2022-12-08T11:54:23.490Z,98336.80
2022-12-08T11:57:03.387Z,98327.40
2022-12-08T11:59:46.329Z,98327.80
2022-12-08T12:02:27.507Z,98327.40
2022-12-08T12:05:33.688Z,98329.40
2022-12-08T12:08:45.062Z,98328.20
2022-12-08T12:11:54.681Z,98331.60
2022-12-08T12:15:03.316Z,98330.00
2022-12-08T12:17:51.742Z,98331.60
2022-12-08T12:20:36.019Z,98332.00
2022-12-08T12:23:21.855Z,98334.20
2022-12-08T12:26:04.448Z,98334.20
2022-12-08T12:28:52.449Z,98333.60
2022-12-08T12:31:33.016Z,98331.60
2022-12-08T12:34:17.910Z,98331.40
2022-12-08T12:36:59.277Z,98326.60
2022-12-08T12:39:51.656Z,98324.40
2022-12-08T12:42:46.221Z,98325.60
2022-12-08T12:45:35.954Z,98325.40
2022-12-08T12:48:28.469Z,98319.60
2022-12-08T12:51:44.695Z,98313.20
2022-12-08T12:54:31.084Z,98313.20
2022-12-08T13:00:26.960Z,98311.60
2022-12-08T13:03:03.659Z,98311.00
2022-12-08T13:05:54.265Z,98311.60
2022-12-08T13:08:31.974Z,98310.00
2022-12-08T13:11:11.906Z,98312.40
2022-12-08T13:14:01.413Z,98314.00
2022-12-08T13:16:42.218Z,98307.00
2022-12-08T13:19:22.495Z,98306.20
2022-12-08T13:21:58.934Z,98297.00
2022-12-08T13:24:38.433Z,98301.20
2022-12-08T13:27:52.543Z,98301.00
2022-12-08T13:30:52.519Z,98302.00
2022-12-08T13:33:39.236Z,98303.40
2022-12-08T13:36:27.306Z,98303.80
2022-12-08T13:39:05.219Z,98302.40
2022-12-08T13:41:50.642Z,98301.60
2022-12-08T13:45:18.677Z,98303.40
2022-12-08T13:48:20.549Z,98300.00
2022-12-08T13:54:52.650Z,98297.40
2022-12-08T13:57:10.671Z,98286.20
2022-12-08T13:59:49.185Z,98285.80
2022-12-08T14:02:39.702Z,98284.60
2022-12-08T14:05:40.575Z,98290.40
2022-12-08T14:11:38.724Z,98293.60
2022-12-08T14:14:45.769Z,98298.20
2022-12-08T14:17:20.997Z,98295.80
2022-12-08T14:20:03.548Z,98299.00
2022-12-08T14:22:42.022Z,98297.80
2022-12-08T14:25:22.455Z,98296.40
2022-12-08T14:28:05.787Z,98302.80
2022-12-08T14:30:42.884Z,98298.60
2022-12-08T14:33:20.818Z,98298.00
2022-12-08T14:35:59.329Z,98298.20
2022-12-08T14:38:35.347Z,98298.80
2022-12-08T14:41:14.636Z,98302.20
2022-12-08T14:44:04.023Z,98303.60
2022-12-08T14:46:40.383Z,98304.80
2022-12-08T14:49:39.202Z,98301.20
2022-12-08T14:52:18.717Z,98294.60
2022-12-08T14:54:56.506Z,98296.60
2022-12-08T14:57:40.335Z,98299.60
2022-12-08T15:00:27.421Z,98295.20
2022-12-08T15:03:08.744Z,98293.80
2022-12-08T15:05:45.269Z,98296.60
2022-12-08T15:08:21.498Z,98297.40
2022-12-08T15:11:35.902Z,98291.60
2022-12-08T15:14:35.255Z,98291.20
2022-12-08T15:17:45.199Z,98287.00
2022-12-08T15:20:44.265Z,98289.00
2022-12-08T15:23:32.635Z,98283.60
2022-12-08T15:26:10.363Z,98282.20
2022-12-08T15:28:46.356Z,98281.60
2022-12-08T15:31:25.212Z,98281.00
2022-12-08T15:34:01.820Z,98275.20
2022-12-08T15:36:38.424Z,98277.20
2022-12-08T15:39:33.556Z,98279.40
2022-12-08T15:42:15.339Z,98275.40
2022-12-08T15:44:51.164Z,98274.00
2022-12-08T15:47:28.793Z,98274.40
2022-12-08T15:50:06.038Z,98274.40
2022-12-08T15:52:42.232Z,98277.00
2022-12-08T15:55:22.954Z,98267.80
2022-12-08T16:00:57.231Z,98266.80
2022-12-08T16:04:14.280Z,98267.00
2022-12-08T16:07:26.863Z,98264.80
2022-12-08T16:09:34.539Z,98264.00
2022-12-08T16:18:38.177Z,98260.20
2022-12-08T16:21:41.775Z,98253.80
2022-12-08T16:24:21.724Z,98254.60
2022-12-08T16:30:08.965Z,98256.40
2022-12-08T16:32:52.731Z,98257.40
2022-12-08T16:35:52.302Z,98257.80
2022-12-08T16:38:36.312Z,98258.20
2022-12-08T16:41:34.906Z,98255.80
2022-12-08T16:44:11.284Z,98254.40
2022-12-08T16:46:47.153Z,98255.00
2022-12-08T16:49:23.200Z,98252.20
2022-12-08T16:51:59.456Z,98257.40
2022-12-08T16:54:37.050Z,98257.00
2022-12-08T16:57:13.317Z,98252.40
2022-12-08T16:59:57.026Z,98252.20
2022-12-08T17:02:33.284Z,98251.20
2022-12-08T17:05:13.750Z,98247.80
2022-12-08T17:07:55.188Z,98242.40
2022-12-08T17:10:42.373Z,98246.00
2022-12-08T17:13:21.253Z,98243.40
2022-12-08T17:15:57.420Z,98241.60
2022-12-08T17:18:34.097Z,98240.40
2022-12-08T17:21:21.529Z,98241.00
2022-12-08T17:23:57.482Z,98242.60
2022-12-08T17:26:35.737Z,98240.20
2022-12-08T17:29:13.623Z,98244.60
2022-12-08T17:31:56.086Z,98241.60
2022-12-08T17:34:39.892Z,98243.80
2022-12-08T17:37:18.103Z,98244.40
2022-12-08T17:40:00.684Z,98241.20
2022-12-08T17:42:38.077Z,98244.20
2022-12-08T17:45:17.706Z,98243.20
2022-12-08T17:47:55.880Z,98244.00
2022-12-08T17:50:32.156Z,98240.60
2022-12-08T17:53:08.322Z,98238.40
2022-12-08T17:56:04.982Z,98239.20
2022-12-08T17:58:47.560Z,98235.60
2022-12-08T18:01:34.485Z,98231.80
2022-12-08T18:04:14.390Z,98235.80
2022-12-08T18:07:04.016Z,98232.20
2022-12-08T18:09:47.853Z,98234.40
2022-12-08T18:12:25.745Z,98229.20
2022-12-08T18:15:12.158Z,98228.60
2022-12-08T18:17:55.415Z,98227.60
2022-12-08T18:20:37.838Z,98222.80
2022-12-08T18:23:19.590Z,98220.00
2022-12-08T18:25:55.973Z,98217.60
2022-12-08T18:28:32.036Z,98219.20
2022-12-08T18:31:22.829Z,98217.40
2022-12-08T18:34:01.241Z,98211.80
2022-12-08T18:36:37.221Z,98210.00
2022-12-08T18:39:26.459Z,98203.00
2022-12-08T18:42:23.098Z,98205.00
2022-12-08T18:45:04.217Z,98203.60
2022-12-08T18:47:42.485Z,98194.80
2022-12-08T18:50:19.647Z,98197.20
2022-12-08T18:52:55.615Z,98188.00
2022-12-08T18:55:31.717Z,98189.20
2022-12-08T18:58:07.630Z,98186.60
2022-12-08T19:00:43.689Z,98189.40
2022-12-08T19:03:19.749Z,98192.80
2022-12-08T19:06:08.282Z,98195.20
2022-12-08T19:08:44.611Z,98197.20
2022-12-08T19:11:29.130Z,98197.80
2022-12-08T19:14:05.777Z,98199.00
2022-12-08T19:16:41.739Z,98194.20
2022-12-08T19:19:17.800Z,98191.80
2022-12-08T19:21:53.624Z,98193.00
2022-12-08T19:24:30.529Z,98190.60
2022-12-08T19:27:06.871Z,98184.00
2022-12-08T19:29:42.804Z,98186.00
2022-12-08T19:32:19.009Z,98184.60
2022-12-08T19:34:55.301Z,98184.80
2022-12-08T19:37:31.505Z,98187.80
2022-12-08T19:40:28.171Z,98184.00
2022-12-08T19:43:24.191Z,98183.80
2022-12-08T19:46:00.648Z,98183.40
2022-12-08T19:48:36.805Z,98187.00
2022-12-08T19:51:14.101Z,98185.20
2022-12-08T19:53:51.498Z,98179.80
2022-12-08T19:56:27.673Z,98178.20
2022-12-08T19:59:03.916Z,98181.80
2022-12-08T20:01:41.429Z,98178.00
2022-12-08T20:04:19.537Z,98179.20
2022-12-08T20:06:57.526Z,98181.40
2022-12-08T20:09:33.437Z,98175.20
2022-12-08T20:12:10.499Z,98177.00
2022-12-08T20:14:46.520Z,98173.00
2022-12-08T20:17:22.429Z,98178.20
2022-12-08T20:20:02.596Z,98177.40
2022-12-08T20:22:43.081Z,98178.80
2022-12-08T20:25:19.661Z,98180.80
2022-12-08T20:27:56.492Z,98184.00
2022-12-08T20:30:32.592Z,98181.00
2022-12-08T20:33:09.460Z,98180.20
2022-12-08T20:35:49.000Z,98175.60
2022-12-08T20:38:25.422Z,98173.00
2022-12-08T20:41:02.963Z,98174.40
2022-12-08T20:43:39.858Z,98171.20
2022-12-08T20:46:19.470Z,98170.40
2022-12-08T20:48:57.926Z,98169.20
2022-12-08T20:51:35.209Z,98170.80
2022-12-08T20:54:11.940Z,98170.20
2022-12-08T20:56:48.686Z,98172.40
2022-12-08T20:59:26.542Z,98174.60
2022-12-08T21:02:04.411Z,98169.20
2022-12-08T21:04:40.893Z,98171.40
2022-12-08T21:07:17.006Z,98178.60
2022-12-08T21:09:54.847Z,98177.60
2022-12-08T21:12:30.928Z,98177.40
2022-12-08T21:15:08.452Z,98179.80
2022-12-08T21:17:44.568Z,98178.20
2022-12-08T21:20:20.791Z,98177.00
2022-12-08T21:22:56.977Z,98174.20
2022-12-08T21:25:33.018Z,98176.00
2022-12-08T21:28:09.325Z,98173.60
2022-12-08T21:30:46.245Z,98173.00
2022-12-08T21:33:22.358Z,98175.00
2022-12-08T21:36:12.047Z,98176.40
2022-12-08T21:38:49.728Z,98176.60
2022-12-08T21:41:46.139Z,98175.60
2022-12-08T21:44:23.781Z,98172.80
2022-12-08T21:46:59.851Z,98171.20
2022-12-08T21:49:36.573Z,98170.00
2022-12-08T21:52:12.669Z,98170.00
2022-12-08T21:54:48.846Z,98168.20
2022-12-08T21:57:26.389Z,98169.00
2022-12-08T22:00:02.609Z,98170.40
2022-12-08T22:02:40.242Z,98171.40
2022-12-08T22:05:17.149Z,98169.20
2022-12-08T22:07:53.269Z,98170.00
2022-12-08T22:10:29.330Z,98164.40
2022-12-08T22:13:05.326Z,98160.80
2022-12-08T22:15:41.330Z,98155.80
2022-12-08T22:18:18.492Z,98154.20
2022-12-08T22:20:54.989Z,98153.00
2022-12-08T22:23:33.420Z,98150.40
2022-12-08T22:26:11.018Z,98157.40
2022-12-08T22:28:47.703Z,98157.40
2022-12-08T22:31:24.932Z,98153.20
2022-12-08T22:34:02.867Z,98155.40
2022-12-08T22:36:38.767Z,98157.60
2022-12-08T22:39:14.790Z,98154.20
2022-12-08T22:41:50.975Z,98150.80
2022-12-08T22:44:27.322Z,98154.00
2022-12-08T22:47:03.446Z,98152.20
2022-12-08T22:49:39.541Z,98149.60
2022-12-08T22:52:15.586Z,98153.60
2022-12-08T22:54:51.459Z,98153.20
2022-12-08T22:57:27.451Z,98147.60
2022-12-08T23:00:03.676Z,98142.00
2022-12-08T23:02:41.257Z,98142.60
2022-12-08T23:05:17.995Z,98140.40
2022-12-08T23:07:54.972Z,98138.40
2022-12-08T23:10:31.392Z,98140.40
2022-12-08T23:13:07.356Z,98138.80
2022-12-08T23:15:43.986Z,98136.80
2022-12-08T23:19:24.857Z,98141.00
2022-12-08T23:22:18.616Z,98140.20
2022-12-08T23:25:14.378Z,98137.80
2022-12-08T23:28:08.359Z,98141.60
2022-12-08T23:30:46.887Z,98145.00
2022-12-08T23:33:23.404Z,98149.40
2022-12-08T23:36:03.360Z,98145.40
2022-12-08T23:38:40.000Z,98141.40
2022-12-08T23:41:19.019Z,98139.80
2022-12-08T23:43:56.409Z,98137.40
2022-12-08T23:46:32.727Z,98141.60
2022-12-08T23:49:08.944Z,98139.40
2022-12-08T23:51:45.310Z,98142.00
2022-12-08T23:54:21.887Z,98132.00
2022-12-08T23:56:57.905Z,98134.00
2022-12-08T23:59:35.145Z,98128.80
